Time;durP1;ratioP1;P1;durP2;ratioP2;P2;SDS_P1;SDS_P2;PMS_P1;PMS_P2;Temp;Humidity;BMP_temperature;BMP_pressure;BME280_temperature;BME280_humidity;BME280_pressure;Samples;Min_cycle;Max_cycle;Signal;HPM_P1;HPM_P2
2021/12/16 00:01:47;;;;;;;20.17;10.17;;;;;;;;;;5106287;28;20188;-75
2021/12/16 00:05:44;;;;;;;21.53;10.37;;;;;;;;;;5100504;28;20189;-75
2021/12/16 00:08:29;;;;;;;19.60;9.93;;;;;;;;;;5108629;28;20180;-75
2021/12/16 00:30:04;;;;;;;42.90;8.95;;;;;;;;;;5129039;27;20206;-75
2021/12/16 00:34:55;;;;;;;26.47;8.10;;;;;;;;;;5130419;27;20234;-75
2021/12/16 00:37:20;;;;;;;17.43;8.00;;;;;;;;;;5113186;27;20186;-75
2021/12/16 00:39:46;;;;;;;17.30;8.50;;;;;;;;;;5112073;27;20191;-75
2021/12/16 00:42:32;;;;;;;17.80;8.23;;;;;;;;;;5114852;27;20207;-75
2021/12/16 00:47:45;;;;;;;13.90;7.63;;;;;;;;;;5128739;27;20191;-75
2021/12/16 00:54:06;;;;;;;15.43;8.77;;;;;;;;;;5108936;27;20203;-75
2021/12/16 00:55:53;;;;;;;20.60;8.47;;;;;;;;;;5126088;27;20186;-75
2021/12/16 00:58:21;;;;;;;18.80;8.20;;;;;;;;;;5113184;27;20184;-75
2021/12/16 01:00:58;;;;;;;19.83;8.40;;;;;;;;;;5112008;27;20225;-75
2021/12/16 01:03:38;;;;;;;17.37;7.40;;;;;;;;;;5104794;27;20190;-75
2021/12/16 01:39:51;;;;;;;10.27;6.17;;;;;;;;;;5131505;27;20179;-74
2021/12/16 01:49:56;;;;;;;8.27;4.80;;;;;;;;;;5123256;27;20183;-75
2021/12/16 01:53:03;;;;;;;10.23;5.13;;;;;;;;;;5105142;27;20267;-75
2021/12/16 01:55:31;;;;;;;10.30;5.53;;;;;;;;;;5123872;27;20175;-75
2021/12/16 01:58:09;;;;;;;9.50;5.80;;;;;;;;;;5113691;27;20172;-75
2021/12/16 02:00:53;;;;;;;9.40;5.83;;;;;;;;;;5111254;27;20382;-75
2021/12/16 02:03:25;;;;;;;6.07;4.50;;;;;;;;;;5104904;27;20222;-75
2021/12/16 02:10:49;;;;;;;6.20;3.93;;;;;;;;;;5129269;27;20243;-75
2021/12/16 02:32:31;;;;;;;7.57;4.50;;;;;;;;;;5120390;27;20263;-75
2021/12/16 02:37:23;;;;;;;7.73;4.67;;;;;;;;;;5128421;27;20224;-75
2021/12/16 02:39:48;;;;;;;8.33;4.20;;;;;;;;;;5103338;28;20473;-75
2021/12/16 02:42:18;;;;;;;8.23;4.53;;;;;;;;;;5104712;28;20211;-75
2021/12/16 02:49:59;;;;;;;6.57;3.90;;;;;;;;;;5123864;27;20178;-75
2021/12/16 02:52:25;;;;;;;5.50;3.50;;;;;;;;;;5106807;27;20180;-75
2021/12/16 02:54:51;;;;;;;6.57;4.20;;;;;;;;;;5106248;27;20203;-75
2021/12/16 02:57:17;;;;;;;5.50;3.90;;;;;;;;;;5107982;27;20183;-75
2021/12/16 02:59:42;;;;;;;6.43;3.63;;;;;;;;;;5108624;27;20183;-75
2021/12/16 03:02:11;;;;;;;6.00;3.40;;;;;;;;;;5128333;27;20179;-75
2021/12/16 03:04:40;;;;;;;7.67;3.43;;;;;;;;;;5111885;27;20190;-75
2021/12/16 03:07:06;;;;;;;4.97;3.13;;;;;;;;;;5111540;28;20204;-75
2021/12/16 03:14:52;;;;;;;6.87;3.33;;;;;;;;;;5123868;27;20171;-75
2021/12/16 03:19:55;;;;;;;5.23;3.67;;;;;;;;;;5119552;28;20193;-75
2021/12/16 03:22:42;;;;;;;4.70;3.07;;;;;;;;;;5108929;28;20183;-75
2021/12/16 03:25:34;;;;;;;5.50;3.67;;;;;;;;;;5119519;28;20172;-75
2021/12/16 03:28:32;;;;;;;4.43;3.20;;;;;;;;;;5108941;28;20537;-75
2021/12/16 03:38:36;;;;;;;4.67;2.80;;;;;;;;;;5121423;28;20247;-75
2021/12/16 03:41:02;;;;;;;3.97;2.73;;;;;;;;;;5124169;28;20191;-75
2021/12/16 03:43:29;;;;;;;4.87;3.60;;;;;;;;;;5121560;28;20207;-75
2021/12/16 03:48:45;;;;;;;3.70;2.70;;;;;;;;;;5124136;27;20270;-75
2021/12/16 03:51:12;;;;;;;3.30;2.50;;;;;;;;;;5106779;27;20295;-75
2021/12/16 03:53:38;;;;;;;3.93;2.80;;;;;;;;;;5109210;27;20175;-75
2021/12/16 03:56:04;;;;;;;3.17;2.47;;;;;;;;;;5112263;27;20239;-75
2021/12/16 03:58:29;;;;;;;4.67;2.60;;;;;;;;;;5114824;27;20472;-75
2021/12/16 04:00:57;;;;;;;3.80;3.10;;;;;;;;;;5105573;27;20191;-75
2021/12/16 04:03:22;;;;;;;3.77;2.47;;;;;;;;;;5114198;27;20193;-75
2021/12/16 04:05:47;;;;;;;3.70;2.87;;;;;;;;;;5109334;27;20207;-75
2021/12/16 04:08:13;;;;;;;4.30;3.30;;;;;;;;;;5110632;27;20286;-75
2021/12/16 04:10:43;;;;;;;3.23;2.43;;;;;;;;;;5109721;28;20587;-75
2021/12/16 04:13:12;;;;;;;3.33;2.60;;;;;;;;;;5111069;28;20196;-75
2021/12/16 04:15:37;;;;;;;5.83;4.90;;;;;;;;;;5107027;28;20172;-75
2021/12/16 04:18:02;;;;;;;5.63;3.87;;;;;;;;;;5108327;28;20184;-75
2021/12/16 04:20:28;;;;;;;4.80;3.33;;;;;;;;;;5112366;28;20186;-75
2021/12/16 04:22:53;;;;;;;3.67;2.67;;;;;;;;;;5105794;28;20180;-75
2021/12/16 04:25:21;;;;;;;4.10;2.97;;;;;;;;;;5109554;28;20179;-75
2021/12/16 04:27:48;;;;;;;4.63;2.53;;;;;;;;;;5109120;28;20180;-75
2021/12/16 04:30:14;;;;;;;3.77;3.07;;;;;;;;;;5107712;28;20175;-75
2021/12/16 04:32:39;;;;;;;3.60;2.60;;;;;;;;;;5104048;28;20229;-75
2021/12/16 04:35:05;;;;;;;7.67;5.50;;;;;;;;;;5107955;28;20168;-75
2021/12/16 04:37:30;;;;;;;4.47;3.27;;;;;;;;;;5099815;28;20173;-75
2021/12/16 04:39:58;;;;;;;3.73;2.50;;;;;;;;;;5106290;28;20194;-75
2021/12/16 04:42:25;;;;;;;3.10;2.73;;;;;;;;;;5106184;28;20219;-75
2021/12/16 04:44:51;;;;;;;3.97;3.10;;;;;;;;;;5106407;28;20176;-75
2021/12/16 04:47:16;;;;;;;3.83;2.93;;;;;;;;;;5105781;28;20187;-75
2021/12/16 04:49:41;;;;;;;4.23;2.60;;;;;;;;;;5107161;28;20187;-75
2021/12/16 04:52:13;;;;;;;3.47;2.70;;;;;;;;;;5107487;28;20290;-75
2021/12/16 04:54:38;;;;;;;4.13;2.97;;;;;;;;;;5103860;28;20173;-75
2021/12/16 04:57:04;;;;;;;9.77;8.93;;;;;;;;;;5124595;27;20179;-75
2021/12/16 04:59:30;;;;;;;5.07;3.20;;;;;;;;;;5107663;28;20163;-75
2021/12/16 05:01:58;;;;;;;3.90;2.93;;;;;;;;;;5106363;28;20326;-75
2021/12/16 05:04:23;;;;;;;3.17;2.70;;;;;;;;;;5105068;28;20180;-75
2021/12/16 05:06:49;;;;;;;4.03;2.80;;;;;;;;;;5103179;28;20313;-75
2021/12/16 05:09:34;;;;;;;3.57;2.90;;;;;;;;;;5111330;27;20177;-75
2021/12/16 05:11:59;;;;;;;2.87;2.30;;;;;;;;;;5126634;27;20208;-75
2021/12/16 05:14:24;;;;;;;4.20;2.67;;;;;;;;;;5129190;27;20267;-75
2021/12/16 05:16:50;;;;;;;3.87;2.60;;;;;;;;;;5132254;27;20255;-75
2021/12/16 05:19:15;;;;;;;5.37;3.30;;;;;;;;;;5113684;27;20171;-75
2021/12/16 05:21:47;;;;;;;3.67;2.67;;;;;;;;;;5109839;27;20183;-75
2021/12/16 05:24:34;;;;;;;3.93;2.90;;;;;;;;;;5125774;27;20195;-75
2021/12/16 05:27:00;;;;;;;3.60;2.77;;;;;;;;;;5126398;27;20199;-75
2021/12/16 05:29:25;;;;;;;3.80;3.00;;;;;;;;;;5110303;27;20176;-74
2021/12/16 05:31:51;;;;;;;3.33;2.73;;;;;;;;;;5107670;27;20229;-75
2021/12/16 05:34:17;;;;;;;2.57;2.30;;;;;;;;;;5126134;27;20203;-75
2021/12/16 05:36:44;;;;;;;6.17;2.70;;;;;;;;;;5128701;27;20210;-75
2021/12/16 05:39:10;;;;;;;4.87;3.30;;;;;;;;;;5128317;27;20175;-75
2021/12/16 05:41:35;;;;;;;9.17;7.40;;;;;;;;;;5107995;27;20180;-75
2021/12/16 05:44:00;;;;;;;3.70;2.87;;;;;;;;;;5111784;27;20287;-75
2021/12/16 05:46:27;;;;;;;4.97;2.60;;;;;;;;;;5104459;27;20176;-75
2021/12/16 05:48:53;;;;;;;2.67;2.47;;;;;;;;;;5109475;27;20180;-75
2021/12/16 05:51:24;;;;;;;2.93;2.63;;;;;;;;;;5103689;27;20237;-75
2021/12/16 05:53:50;;;;;;;2.50;2.30;;;;;;;;;;5127821;27;20171;-75
2021/12/16 05:56:15;;;;;;;2.80;2.47;;;;;;;;;;5124897;27;20172;-75
2021/12/16 05:58:40;;;;;;;3.07;2.27;;;;;;;;;;5111398;27;20209;-75
2021/12/16 06:01:09;;;;;;;3.13;2.63;;;;;;;;;;5123982;27;20175;-75
2021/12/16 06:03:35;;;;;;;4.47;3.10;;;;;;;;;;5124686;27;20180;-75
2021/12/16 06:06:01;;;;;;;4.10;3.60;;;;;;;;;;5127699;27;20191;-75
2021/12/16 06:08:26;;;;;;;7.10;2.93;;;;;;;;;;5111373;27;20176;-75
2021/12/16 06:13:45;;;;;;;3.43;2.90;;;;;;;;;;5115157;27;20183;-78
2021/12/16 06:27:11;;;;;;;5.07;4.50;;;;;;;;;;5120879;27;20179;-78
2021/12/16 06:29:37;;;;;;;4.87;4.27;;;;;;;;;;5105440;27;20172;-77
2021/12/16 06:32:03;;;;;;;8.60;7.60;;;;;;;;;;5105421;27;20211;-78
2021/12/16 06:34:28;;;;;;;5.13;4.63;;;;;;;;;;5107193;27;20195;-78
2021/12/16 06:36:54;;;;;;;5.80;4.40;;;;;;;;;;5107836;27;20178;-78
2021/12/16 06:39:19;;;;;;;10.30;9.30;;;;;;;;;;5103575;28;20180;-78
2021/12/16 06:41:44;;;;;;;6.77;6.07;;;;;;;;;;5105738;27;20179;-78
2021/12/16 06:44:22;;;;;;;7.13;4.23;;;;;;;;;;5107533;27;20200;-78
2021/12/16 06:46:48;;;;;;;9.67;6.87;;;;;;;;;;5107730;27;20175;-78
2021/12/16 06:49:16;;;;;;;11.87;7.27;;;;;;;;;;5110476;27;20183;-78
2021/12/16 06:51:56;;;;;;;9.90;6.40;;;;;;;;;;5110667;27;20202;-78
2021/12/16 06:54:33;;;;;;;14.37;10.17;;;;;;;;;;5102956;27;20186;-78
2021/12/16 06:57:17;;;;;;;11.60;7.20;;;;;;;;;;5110104;27;20175;-78
2021/12/16 06:59:52;;;;;;;9.43;7.03;;;;;;;;;;5111420;27;20183;-78
2021/12/16 07:02:37;;;;;;;12.40;9.07;;;;;;;;;;5109921;27;20183;-78
2021/12/16 07:05:04;;;;;;;10.33;7.30;;;;;;;;;;5111063;27;20179;-78
2021/12/16 07:07:29;;;;;;;11.07;9.10;;;;;;;;;;5107505;27;20176;-78
2021/12/16 07:09:54;;;;;;;8.73;7.10;;;;;;;;;;5107792;28;20238;-78
2021/12/16 07:12:26;;;;;;;8.87;7.73;;;;;;;;;;5107149;28;20195;-78
2021/12/16 07:14:51;;;;;;;8.80;7.90;;;;;;;;;;5109353;28;20172;-78
2021/12/16 07:17:16;;;;;;;10.80;6.70;;;;;;;;;;5106194;28;20179;-78
2021/12/16 07:19:43;;;;;;;7.07;5.13;;;;;;;;;;5103807;28;20167;-78
2021/12/16 07:22:09;;;;;;;7.87;5.30;;;;;;;;;;5108242;28;20176;-78
2021/12/16 07:24:34;;;;;;;9.87;6.83;;;;;;;;;;5108458;28;20436;-78
2021/12/16 07:26:59;;;;;;;6.93;5.40;;;;;;;;;;5104110;28;20225;-78
2021/12/16 07:29:25;;;;;;;6.53;4.87;;;;;;;;;;5107596;28;20266;-78
2021/12/16 07:31:50;;;;;;;6.37;4.73;;;;;;;;;;5101588;28;20201;-78
2021/12/16 07:34:16;;;;;;;8.60;7.63;;;;;;;;;;5102880;28;20178;-78
2021/12/16 07:36:42;;;;;;;7.47;6.40;;;;;;;;;;5105837;28;20175;-78
2021/12/16 07:39:09;;;;;;;7.13;6.43;;;;;;;;;;5092762;28;20168;-78
2021/12/16 07:41:35;;;;;;;8.20;6.43;;;;;;;;;;5104077;28;20202;-78
2021/12/16 07:44:11;;;;;;;6.83;6.17;;;;;;;;;;5103608;28;20315;-79
2021/12/16 07:46:41;;;;;;;8.97;8.00;;;;;;;;;;5100139;28;20238;-78
2021/12/16 07:49:08;;;;;;;8.73;6.23;;;;;;;;;;5094034;28;20177;-78
2021/12/16 07:51:34;;;;;;;7.60;6.47;;;;;;;;;;5101048;28;20204;-78
2021/12/16 07:54:00;;;;;;;8.67;7.60;;;;;;;;;;5100472;28;20218;-78
2021/12/16 07:56:25;;;;;;;8.13;6.90;;;;;;;;;;5098780;28;20176;-78
2021/12/16 07:58:50;;;;;;;7.90;6.40;;;;;;;;;;5098442;28;20176;-78
2021/12/16 08:01:18;;;;;;;6.60;5.80;;;;;;;;;;5103816;28;20176;-78
2021/12/16 08:03:43;;;;;;;7.47;6.10;;;;;;;;;;5100125;28;20188;-78
2021/12/16 08:06:12;;;;;;;6.73;5.10;;;;;;;;;;5101639;28;20176;-78
2021/12/16 08:08:37;;;;;;;7.13;6.37;;;;;;;;;;5099103;28;20268;-78
2021/12/16 08:11:04;;;;;;;7.20;6.50;;;;;;;;;;5105125;28;20323;-78
2021/12/16 08:13:29;;;;;;;9.90;6.97;;;;;;;;;;5103860;28;20192;-78
2021/12/16 08:15:55;;;;;;;6.53;5.50;;;;;;;;;;5102250;28;20173;-78
2021/12/16 08:18:20;;;;;;;6.23;4.80;;;;;;;;;;5104474;28;20176;-78
2021/12/16 08:20:45;;;;;;;7.10;4.60;;;;;;;;;;5106024;28;20191;-78
2021/12/16 08:23:11;;;;;;;5.10;4.60;;;;;;;;;;5103365;28;20209;-78
2021/12/16 08:25:36;;;;;;;6.47;5.67;;;;;;;;;;5098079;28;20185;-78
2021/12/16 08:28:03;;;;;;;6.43;5.17;;;;;;;;;;5097553;28;20173;-78
2021/12/16 08:30:29;;;;;;;8.23;5.53;;;;;;;;;;5098602;28;20181;-78
2021/12/16 08:32:55;;;;;;;8.60;5.20;;;;;;;;;;5098443;28;20229;-78
2021/12/16 08:35:21;;;;;;;6.27;4.70;;;;;;;;;;5099177;28;20178;-78
2021/12/16 08:37:47;;;;;;;7.37;4.73;;;;;;;;;;5109276;28;20258;-78
2021/12/16 08:40:14;;;;;;;6.10;5.03;;;;;;;;;;5100258;28;20188;-78
2021/12/16 08:42:40;;;;;;;6.00;4.70;;;;;;;;;;5105729;28;20204;-77
2021/12/16 08:45:13;;;;;;;9.23;5.10;;;;;;;;;;5109076;28;20229;-78
2021/12/16 08:47:38;;;;;;;5.90;4.90;;;;;;;;;;5099129;28;20228;-77
2021/12/16 08:50:05;;;;;;;7.33;5.27;;;;;;;;;;5108727;28;20204;-78
2021/12/16 08:52:30;;;;;;;6.90;5.63;;;;;;;;;;5107119;28;20257;-78
2021/12/16 08:54:55;;;;;;;7.63;6.07;;;;;;;;;;5107999;28;20450;-78
2021/12/16 08:57:20;;;;;;;8.10;6.20;;;;;;;;;;5107171;28;20169;-78
2021/12/16 08:59:48;;;;;;;8.33;6.17;;;;;;;;;;5103957;28;20329;-78
2021/12/16 09:02:13;;;;;;;9.87;7.47;;;;;;;;;;5104231;28;20180;-78
2021/12/16 09:04:39;;;;;;;9.83;7.30;;;;;;;;;;5104122;28;20236;-78
2021/12/16 09:07:05;;;;;;;6.93;5.57;;;;;;;;;;5108845;28;20213;-78
2021/12/16 09:09:34;;;;;;;7.23;5.63;;;;;;;;;;5104400;27;20177;-78
2021/12/16 09:12:09;;;;;;;7.77;5.90;;;;;;;;;;5106883;28;20215;-78
2021/12/16 09:14:35;;;;;;;9.67;6.23;;;;;;;;;;5111673;27;20179;-77
2021/12/16 09:17:01;;;;;;;7.43;5.67;;;;;;;;;;5112149;28;20168;-78
2021/12/16 09:19:26;;;;;;;10.20;4.57;;;;;;;;;;5129776;27;20164;-78
2021/12/16 09:21:51;;;;;;;8.70;4.93;;;;;;;;;;5102258;27;20263;-77
2021/12/16 09:24:17;;;;;;;12.17;8.00;;;;;;;;;;5111571;27;20168;-78
2021/12/16 09:26:42;;;;;;;9.27;6.60;;;;;;;;;;5104347;27;20176;-78
2021/12/16 09:29:09;;;;;;;24.67;9.17;;;;;;;;;;5124809;27;20171;-77
2021/12/16 09:31:35;;;;;;;29.87;11.03;;;;;;;;;;5110983;27;20199;-77
2021/12/16 09:34:05;;;;;;;34.43;10.67;;;;;;;;;;5107161;27;20249;-78
2021/12/16 09:36:31;;;;;;;17.37;7.67;;;;;;;;;;5104915;27;20235;-78
2021/12/16 09:38:57;;;;;;;9.73;7.07;;;;;;;;;;5108158;27;20276;-77
2021/12/16 09:41:22;;;;;;;11.70;6.67;;;;;;;;;;5121039;27;20176;-78
2021/12/16 09:43:49;;;;;;;13.43;7.33;;;;;;;;;;5103702;27;20582;-77
2021/12/16 09:46:17;;;;;;;12.90;6.70;;;;;;;;;;5110646;27;21661;-78
2021/12/16 09:48:43;;;;;;;11.00;7.23;;;;;;;;;;5111791;27;20266;-78
2021/12/16 09:51:11;;;;;;;9.97;7.00;;;;;;;;;;5105988;27;20279;-78
2021/12/16 09:53:37;;;;;;;12.33;7.30;;;;;;;;;;5125092;27;20175;-78
2021/12/16 09:56:08;;;;;;;14.13;8.20;;;;;;;;;;5104544;27;20172;-78
2021/12/16 09:58:35;;;;;;;12.33;7.17;;;;;;;;;;5112822;27;20198;-78
2021/12/16 10:01:00;;;;;;;11.63;7.87;;;;;;;;;;5109573;27;20172;-78
2021/12/16 10:03:26;;;;;;;9.90;7.40;;;;;;;;;;5107943;27;20180;-78
2021/12/16 10:05:51;;;;;;;11.37;8.30;;;;;;;;;;5101082;27;20176;-78
2021/12/16 10:08:17;;;;;;;10.60;7.30;;;;;;;;;;5123279;27;20172;-78
2021/12/16 10:10:42;;;;;;;13.57;7.30;;;;;;;;;;5106742;27;20231;-78
2021/12/16 10:13:08;;;;;;;12.43;7.40;;;;;;;;;;5105505;27;20175;-78
2021/12/16 10:18:11;;;;;;;8.47;5.90;;;;;;;;;;5126245;27;20182;-78
2021/12/16 10:20:42;;;;;;;7.77;5.97;;;;;;;;;;5101416;28;20203;-77
2021/12/16 10:23:10;;;;;;;8.03;5.27;;;;;;;;;;5111328;27;20176;-78
2021/12/16 10:25:40;;;;;;;10.20;5.10;;;;;;;;;;5105858;27;20259;-78
2021/12/16 10:28:26;;;;;;;8.70;5.73;;;;;;;;;;5108883;27;20427;-77
2021/12/16 10:31:02;;;;;;;9.10;5.60;;;;;;;;;;5102491;27;20228;-78
2021/12/16 10:33:30;;;;;;;6.20;5.20;;;;;;;;;;5106342;27;20187;-78
2021/12/16 10:36:15;;;;;;;6.77;6.07;;;;;;;;;;5108614;27;20177;-78
2021/12/16 10:38:40;;;;;;;6.20;5.00;;;;;;;;;;5096506;28;20179;-78
2021/12/16 10:41:07;;;;;;;6.83;5.53;;;;;;;;;;5112672;27;20179;-78
2021/12/16 10:43:32;;;;;;;8.63;5.20;;;;;;;;;;5112595;27;20199;-78
2021/12/16 10:46:04;;;;;;;8.17;5.70;;;;;;;;;;5122590;27;20171;-78
2021/12/16 10:48:40;;;;;;;6.07;4.53;;;;;;;;;;5104987;27;20182;-78
2021/12/16 10:51:12;;;;;;;5.43;4.60;;;;;;;;;;5109487;27;20230;-78
2021/12/16 10:53:46;;;;;;;7.07;5.30;;;;;;;;;;5107527;27;20172;-78
2021/12/16 10:56:11;;;;;;;6.20;4.40;;;;;;;;;;5105303;27;20302;-78
2021/12/16 10:58:47;;;;;;;6.97;5.60;;;;;;;;;;5126084;27;20171;-78
2021/12/16 11:01:31;;;;;;;6.57;5.53;;;;;;;;;;5106687;28;20191;-78
2021/12/16 11:03:57;;;;;;;6.27;5.13;;;;;;;;;;5107363;27;20239;-78
2021/12/16 11:06:44;;;;;;;6.50;5.30;;;;;;;;;;5112985;28;20274;-77
2021/12/16 11:09:24;;;;;;;8.17;4.97;;;;;;;;;;5101199;27;20221;-78
2021/12/16 11:12:08;;;;;;;9.10;4.80;;;;;;;;;;5123153;27;20366;-78
2021/12/16 11:14:34;;;;;;;4.70;4.00;;;;;;;;;;5101069;27;20345;-78
2021/12/16 11:17:00;;;;;;;5.13;4.63;;;;;;;;;;5106619;28;20176;-78
2021/12/16 11:19:38;;;;;;;5.03;4.20;;;;;;;;;;5130541;27;20200;-78
2021/12/16 11:22:04;;;;;;;7.73;4.90;;;;;;;;;;5107409;28;20196;-78
2021/12/16 11:24:29;;;;;;;4.80;3.67;;;;;;;;;;5108867;28;20208;-78
2021/12/16 11:26:55;;;;;;;4.70;3.90;;;;;;;;;;5110207;28;20265;-78
2021/12/16 11:29:22;;;;;;;5.77;4.60;;;;;;;;;;5123257;28;20215;-78
2021/12/16 11:31:48;;;;;;;5.60;4.20;;;;;;;;;;5107137;28;20371;-78
2021/12/16 11:34:14;;;;;;;6.07;4.23;;;;;;;;;;5107306;28;20220;-78
2021/12/16 11:36:44;;;;;;;5.57;5.07;;;;;;;;;;5106681;28;20171;-78
2021/12/16 11:39:15;;;;;;;6.57;5.10;;;;;;;;;;5107684;28;20178;-78
2021/12/16 11:41:43;;;;;;;6.00;4.37;;;;;;;;;;5125626;28;20178;-78
2021/12/16 11:44:11;;;;;;;7.20;5.27;;;;;;;;;;5111617;28;20195;-77
2021/12/16 11:46:44;;;;;;;8.57;6.50;;;;;;;;;;5125812;28;20215;-78
2021/12/16 11:49:13;;;;;;;12.77;9.93;;;;;;;;;;5105607;28;20228;-78
2021/12/16 11:51:41;;;;;;;10.87;6.67;;;;;;;;;;5124377;28;20184;-78
2021/12/16 11:54:13;;;;;;;9.80;7.10;;;;;;;;;;5120364;28;20237;-78
2021/12/16 11:56:41;;;;;;;7.90;5.67;;;;;;;;;;5109261;28;20197;-78
2021/12/16 11:59:07;;;;;;;6.10;4.80;;;;;;;;;;5106731;28;20175;-78
2021/12/16 12:01:32;;;;;;;6.93;5.37;;;;;;;;;;5111375;28;20180;-77
2021/12/16 12:04:02;;;;;;;5.53;4.70;;;;;;;;;;5107128;28;20188;-78
2021/12/16 12:06:29;;;;;;;6.00;5.40;;;;;;;;;;5110573;28;20207;-78
2021/12/16 12:08:55;;;;;;;6.20;5.03;;;;;;;;;;5105745;27;20184;-78
2021/12/16 12:11:23;;;;;;;5.77;4.63;;;;;;;;;;5132490;27;20219;-78
2021/12/16 12:13:56;;;;;;;5.73;4.77;;;;;;;;;;5106117;27;20171;-78
2021/12/16 12:16:24;;;;;;;5.93;4.77;;;;;;;;;;5113530;27;20169;-78
2021/12/16 12:19:19;;;;;;;7.73;5.23;;;;;;;;;;5126839;27;20168;-78
2021/12/16 12:21:58;;;;;;;4.77;4.23;;;;;;;;;;5088184;27;20203;-78
2021/12/16 12:24:25;;;;;;;5.10;4.30;;;;;;;;;;5128111;27;20179;-78
2021/12/16 12:26:53;;;;;;;6.40;5.20;;;;;;;;;;5113136;27;20179;-78
2021/12/16 12:29:27;;;;;;;10.07;6.97;;;;;;;;;;5121965;27;20196;-78
2021/12/16 12:31:54;;;;;;;11.30;8.50;;;;;;;;;;5107563;27;20203;-78
2021/12/16 12:34:20;;;;;;;7.17;5.33;;;;;;;;;;5110091;27;20191;-78
2021/12/16 12:36:47;;;;;;;9.93;7.97;;;;;;;;;;5126542;27;20232;-78
2021/12/16 12:39:15;;;;;;;11.90;9.30;;;;;;;;;;5112552;27;20168;-77
2021/12/16 12:41:40;;;;;;;8.27;5.77;;;;;;;;;;5108474;27;20225;-78
2021/12/16 12:44:06;;;;;;;9.03;7.73;;;;;;;;;;5108799;27;20257;-78
2021/12/16 12:46:33;;;;;;;34.40;21.60;;;;;;;;;;5122259;27;20253;-78
2021/12/16 12:49:02;;;;;;;11.33;8.03;;;;;;;;;;5111371;27;20179;-78
2021/12/16 12:51:32;;;;;;;26.50;14.07;;;;;;;;;;5106832;27;20214;-76
2021/12/16 12:53:57;;;;;;;11.97;7.17;;;;;;;;;;5113050;27;20176;-78
2021/12/16 12:56:32;;;;;;;6.67;5.67;;;;;;;;;;5107649;27;20215;-77
2021/12/16 12:59:04;;;;;;;8.73;7.83;;;;;;;;;;5110730;27;20183;-78
2021/12/16 13:01:49;;;;;;;7.40;4.77;;;;;;;;;;5127661;27;20197;-77
2021/12/16 13:04:18;;;;;;;7.47;5.63;;;;;;;;;;5106833;27;20183;-78
2021/12/16 13:07:04;;;;;;;6.20;5.43;;;;;;;;;;5101310;27;20211;-78
2021/12/16 13:09:29;;;;;;;6.17;4.47;;;;;;;;;;5103300;28;20184;-78
2021/12/16 13:11:54;;;;;;;6.80;5.18;;;;;;;;;;5109376;27;20347;-78
2021/12/16 13:14:28;;;;;;;6.60;5.20;;;;;;;;;;5106766;27;20229;-78
2021/12/16 13:27:39;;;;;;;6.60;5.57;;;;;;;;;;5125803;27;20186;-78
2021/12/16 13:30:18;;;;;;;7.53;5.67;;;;;;;;;;5109871;27;20188;-78
2021/12/16 13:33:08;;;;;;;6.33;4.57;;;;;;;;;;5107787;27;20195;-78
2021/12/16 13:35:46;;;;;;;6.43;4.50;;;;;;;;;;5089145;27;20173;-78
2021/12/16 13:38:11;;;;;;;5.70;4.10;;;;;;;;;;5105057;27;20214;-78
2021/12/16 13:40:38;;;;;;;6.27;4.13;;;;;;;;;;5111684;27;20200;-78
2021/12/16 13:43:11;;;;;;;5.30;4.10;;;;;;;;;;5107493;27;20199;-78
2021/12/16 13:45:45;;;;;;;6.37;4.40;;;;;;;;;;5110769;27;20268;-78
2021/12/16 14:02:12;;;;;;;6.33;4.53;;;;;;;;;;5128160;27;20213;-77
2021/12/16 14:10:05;;;;;;;4.57;4.17;;;;;;;;;;5117467;27;20189;-77
2021/12/16 14:22:54;;;;;;;4.93;4.37;;;;;;;;;;5128781;27;20183;-77
2021/12/16 14:23:21;;;;;;;8.00;5.20;;;;;;;;;;5125786;27;20182;-77
2021/12/16 14:26:12;;;;;;;6.13;4.30;;;;;;;;;;5103488;27;20179;-77
2021/12/16 14:32:51;;;;;;;5.47;4.20;;;;;;;;;;5128409;27;20199;-77
2021/12/16 14:34:52;;;;;;;8.47;5.17;;;;;;;;;;5113150;27;20197;-77
2021/12/16 14:37:22;;;;;;;7.13;5.13;;;;;;;;;;5126610;27;20176;-77
2021/12/16 14:40:02;;;;;;;6.43;4.83;;;;;;;;;;5104572;27;20176;-77
2021/12/16 14:42:58;;;;;;;7.30;5.30;;;;;;;;;;5122750;27;20204;-78
2021/12/16 14:45:31;;;;;;;9.57;6.13;;;;;;;;;;5105538;27;20227;-77
2021/12/16 14:48:28;;;;;;;7.97;7.13;;;;;;;;;;5104575;27;20168;-77
2021/12/16 14:50:59;;;;;;;6.47;5.13;;;;;;;;;;5125751;27;20287;-77
2021/12/16 14:53:36;;;;;;;9.53;6.20;;;;;;;;;;5109641;27;20172;-77
2021/12/16 14:56:07;;;;;;;8.47;7.07;;;;;;;;;;5122963;27;20171;-77
2021/12/16 14:58:33;;;;;;;8.03;5.47;;;;;;;;;;5110652;27;20360;-77
2021/12/16 15:01:08;;;;;;;10.27;6.70;;;;;;;;;;5112128;27;20188;-77
2021/12/16 15:03:37;;;;;;;8.97;7.23;;;;;;;;;;5125353;27;20274;-77
2021/12/16 15:06:05;;;;;;;9.70;7.40;;;;;;;;;;5126643;27;20182;-78
2021/12/16 15:08:39;;;;;;;11.73;9.67;;;;;;;;;;5106277;27;20179;-77
2021/12/16 15:11:06;;;;;;;12.67;9.47;;;;;;;;;;5094138;28;20242;-77
2021/12/16 15:13:38;;;;;;;16.13;11.20;;;;;;;;;;5079566;28;20208;-77
2021/12/16 15:43:35;;;;;;;15.87;10.73;;;;;;;;;;5090437;28;20260;-77
2021/12/16 15:46:04;;;;;;;17.10;11.33;;;;;;;;;;5087609;28;20206;-77
2021/12/16 15:48:30;;;;;;;10.43;9.00;;;;;;;;;;5092502;28;20553;-77
2021/12/16 15:50:59;;;;;;;10.93;8.23;;;;;;;;;;5086347;28;20293;-77
2021/12/16 15:53:29;;;;;;;11.13;8.53;;;;;;;;;;5090215;28;20184;-77
2021/12/16 15:56:01;;;;;;;10.90;8.67;;;;;;;;;;5087073;28;20268;-77
2021/12/16 15:58:27;;;;;;;10.90;8.93;;;;;;;;;;5090744;28;20175;-77
2021/12/16 16:00:56;;;;;;;10.57;8.53;;;;;;;;;;5088365;28;20181;-77
2021/12/16 16:03:21;;;;;;;12.30;10.07;;;;;;;;;;5099188;28;20177;-77
2021/12/16 16:05:48;;;;;;;11.43;9.00;;;;;;;;;;5089820;28;20204;-77
2021/12/16 16:08:16;;;;;;;9.50;8.50;;;;;;;;;;5090527;28;20212;-77
2021/12/16 16:10:43;;;;;;;8.10;6.87;;;;;;;;;;5095639;28;20252;-77
2021/12/16 16:13:11;;;;;;;10.47;7.63;;;;;;;;;;5104476;28;20176;-77
2021/12/16 16:15:36;;;;;;;12.33;7.80;;;;;;;;;;5102939;28;20190;-78
2021/12/16 16:18:55;;;;;;;8.80;7.20;;;;;;;;;;5105540;28;20181;-77
2021/12/16 16:20:48;;;;;;;8.67;6.80;;;;;;;;;;5103178;28;20206;-77
2021/12/16 16:23:15;;;;;;;10.67;7.77;;;;;;;;;;5110351;28;20182;-77
2021/12/16 16:25:41;;;;;;;11.43;7.57;;;;;;;;;;5105142;28;20237;-76
2021/12/16 16:28:08;;;;;;;10.17;6.97;;;;;;;;;;5111009;28;20207;-77
2021/12/16 16:30:33;;;;;;;9.23;6.87;;;;;;;;;;5108074;28;20182;-77
2021/12/16 16:33:03;;;;;;;12.63;8.80;;;;;;;;;;5106049;28;20189;-77
2021/12/16 16:35:29;;;;;;;10.57;7.93;;;;;;;;;;5112182;28;20261;-77
2021/12/16 16:38:05;;;;;;;10.40;8.13;;;;;;;;;;5108661;28;20264;-77
2021/12/16 16:40:35;;;;;;;9.57;7.43;;;;;;;;;;5108557;28;20245;-77
2021/12/16 16:43:00;;;;;;;9.90;7.53;;;;;;;;;;5102439;28;20266;-77
2021/12/16 16:45:30;;;;;;;10.20;7.77;;;;;;;;;;5105059;27;20192;-77
2021/12/16 16:48:05;;;;;;;9.30;7.27;;;;;;;;;;5105867;28;20235;-77
2021/12/16 16:50:31;;;;;;;12.77;9.43;;;;;;;;;;5106168;28;20187;-77
2021/12/16 16:52:57;;;;;;;11.43;8.63;;;;;;;;;;5104050;28;20177;-77
2021/12/16 16:55:28;;;;;;;30.37;20.23;;;;;;;;;;5103733;28;21186;-77
2021/12/16 16:57:53;;;;;;;15.10;9.23;;;;;;;;;;5108634;28;20196;-77
2021/12/16 17:00:20;;;;;;;14.05;10.75;;;;;;;;;;5108154;28;20219;-77
2021/12/16 17:02:48;;;;;;;10.40;8.30;;;;;;;;;;5108303;28;20188;-77
2021/12/16 17:05:22;;;;;;;12.77;8.93;;;;;;;;;;5106141;28;20199;-77
2021/12/16 17:07:56;;;;;;;14.97;8.83;;;;;;;;;;5108713;28;20183;-77
2021/12/16 17:10:41;;;;;;;15.80;11.00;;;;;;;;;;5107732;28;20296;-77
2021/12/16 17:13:13;;;;;;;16.00;11.37;;;;;;;;;;5103819;28;20192;-77
2021/12/16 17:17:11;;;;;;;17.17;10.80;;;;;;;;;;5108556;28;20195;-77
2021/12/16 17:18:33;;;;;;;13.97;9.87;;;;;;;;;;5105261;28;20172;-77
2021/12/16 17:21:00;;;;;;;14.00;9.87;;;;;;;;;;5103238;28;20183;-77
2021/12/16 17:23:27;;;;;;;14.63;10.87;;;;;;;;;;5108766;28;20187;-77
2021/12/16 17:25:52;;;;;;;13.33;9.50;;;;;;;;;;5105309;28;20187;-77
2021/12/16 17:28:18;;;;;;;16.37;10.87;;;;;;;;;;5106508;28;20202;-77
2021/12/16 17:30:46;;;;;;;15.00;11.13;;;;;;;;;;5103228;28;20241;-77
2021/12/16 17:33:13;;;;;;;14.33;10.50;;;;;;;;;;5102895;28;20179;-77
2021/12/16 17:35:49;;;;;;;18.83;12.63;;;;;;;;;;5101913;28;20177;-77
2021/12/16 17:38:25;;;;;;;15.57;11.47;;;;;;;;;;5107389;28;20232;-77
2021/12/16 17:40:52;;;;;;;15.47;9.80;;;;;;;;;;5121351;27;20263;-77
2021/12/16 17:43:24;;;;;;;14.60;9.90;;;;;;;;;;5107209;28;20192;-77
2021/12/16 17:46:02;;;;;;;14.40;9.63;;;;;;;;;;5105977;28;20229;-77
2021/12/16 17:48:31;;;;;;;16.63;9.93;;;;;;;;;;5104373;28;20209;-77
2021/12/16 17:50:59;;;;;;;13.50;10.23;;;;;;;;;;5101371;28;20224;-77
2021/12/16 17:53:24;;;;;;;18.03;10.93;;;;;;;;;;5103730;28;20461;-77
2021/12/16 17:55:55;;;;;;;19.57;11.63;;;;;;;;;;5106678;28;20206;-77
2021/12/16 17:58:23;;;;;;;18.23;12.17;;;;;;;;;;5101984;28;20187;-77
2021/12/16 18:00:52;;;;;;;15.43;10.07;;;;;;;;;;5107077;28;20172;-77
2021/12/16 18:03:23;;;;;;;15.03;10.40;;;;;;;;;;5105282;28;20229;-77
2021/12/16 18:05:50;;;;;;;17.10;10.27;;;;;;;;;;5104250;28;20211;-77
2021/12/16 18:08:27;;;;;;;20.47;12.47;;;;;;;;;;5108047;28;20176;-77
2021/12/16 18:10:52;;;;;;;16.20;10.97;;;;;;;;;;5107236;28;20220;-77
2021/12/16 18:13:17;;;;;;;16.67;11.27;;;;;;;;;;5105293;28;20192;-78
2021/12/16 18:15:43;;;;;;;16.00;11.33;;;;;;;;;;5104690;28;20200;-77
2021/12/16 18:18:12;;;;;;;18.03;14.07;;;;;;;;;;5102677;28;20183;-77